createdAt,value
2023-04-21T00:02:23.604Z,32.50
2023-04-21T00:05:25.664Z,32.65
2023-04-21T00:08:27.819Z,32.08
2023-04-21T00:11:29.428Z,32.15
2023-04-21T00:14:30.967Z,31.55
2023-04-21T00:17:32.967Z,33.55
2023-04-21T00:20:34.572Z,33.50
2023-04-21T00:23:36.360Z,30.60
2023-04-21T00:26:37.996Z,35.65
2023-04-21T00:29:40.616Z,36.70
2023-04-21T00:32:42.262Z,37.60
2023-04-21T00:35:43.848Z,39.75
2023-04-21T00:38:45.550Z,36.08
2023-04-21T00:41:47.137Z,36.30
2023-04-21T00:44:48.932Z,40.42
2023-04-21T00:47:50.645Z,35.20
2023-04-21T00:50:52.322Z,35.20
2023-04-21T00:53:55.569Z,37.80
2023-04-21T00:56:58.393Z,38.85
2023-04-21T01:00:00.172Z,37.42
2023-04-21T01:03:02.133Z,39.65
2023-04-21T01:06:03.971Z,39.72
2023-04-21T01:09:05.764Z,39.30
2023-04-21T01:12:09.970Z,38.70
2023-04-21T01:15:13.762Z,37.10
2023-04-21T01:18:17.030Z,38.88
2023-04-21T01:21:19.414Z,39.97
2023-04-21T01:24:21.053Z,43.10
2023-04-21T01:27:22.984Z,42.30
2023-04-21T01:30:24.868Z,43.20
2023-04-21T01:33:27.105Z,40.35
2023-04-21T01:36:28.693Z,40.63
2023-04-21T01:39:30.321Z,37.97
2023-04-21T01:42:33.273Z,36.67
2023-04-21T01:45:35.078Z,38.85
2023-04-21T01:48:37.098Z,41.33
2023-04-21T01:51:38.657Z,41.00
2023-04-21T01:54:40.204Z,41.38
2023-04-21T01:57:41.788Z,40.17
2023-04-21T02:00:43.567Z,40.20
2023-04-21T02:03:46.110Z,45.75
2023-04-21T02:06:50.744Z,42.97
2023-04-21T02:09:52.284Z,40.42
2023-04-21T02:12:53.904Z,43.95
2023-04-21T02:16:09.690Z,44.88
2023-04-21T02:19:15.021Z,41.55
2023-04-21T02:22:17.010Z,40.78
2023-04-21T02:25:19.969Z,45.45
2023-04-21T02:28:21.804Z,42.50
2023-04-21T02:31:23.498Z,39.17
2023-04-21T02:34:25.415Z,40.90
2023-04-21T02:37:27.161Z,37.13
2023-04-21T02:40:30.710Z,41.58
2023-04-21T02:43:32.268Z,44.90
2023-04-21T02:46:33.883Z,41.33
2023-04-21T02:49:39.652Z,40.85
2023-04-21T02:52:41.217Z,43.35
2023-04-21T02:55:43.197Z,42.05
2023-04-21T02:58:45.788Z,39.17
2023-04-21T03:01:49.071Z,41.88
2023-04-21T03:04:53.954Z,41.67
2023-04-21T03:07:56.108Z,40.05
2023-04-21T03:10:58.193Z,37.08
2023-04-21T03:13:59.718Z,36.30
2023-04-21T03:17:01.283Z,44.38
2023-04-21T03:20:06.283Z,38.63
2023-04-21T03:23:07.860Z,41.08
2023-04-21T03:26:09.501Z,43.65
2023-04-21T03:29:11.066Z,45.13
2023-04-21T03:32:12.815Z,41.47
2023-04-21T03:35:14.481Z,41.97
2023-04-21T03:38:16.467Z,43.08
2023-04-21T03:41:18.136Z,44.55
2023-04-21T03:44:19.716Z,42.13
2023-04-21T03:47:21.307Z,43.78
2023-04-21T03:50:23.544Z,42.78
2023-04-21T03:53:25.107Z,44.15
2023-04-21T03:56:26.702Z,46.10
2023-04-21T03:59:28.572Z,43.30
2023-04-21T04:02:30.243Z,46.20
2023-04-21T04:05:32.048Z,45.80
2023-04-21T04:08:33.688Z,44.85
2023-04-21T04:11:35.439Z,43.83
2023-04-21T04:14:37.090Z,47.53
2023-04-21T04:17:38.704Z,44.35
2023-04-21T04:20:40.265Z,45.58
2023-04-21T04:23:42.536Z,44.47
2023-04-21T04:26:44.452Z,40.75
2023-04-21T04:29:46.444Z,44.40
2023-04-21T04:32:48.099Z,45.03
2023-04-21T04:35:49.678Z,47.25
2023-04-21T04:38:51.566Z,50.45
2023-04-21T04:41:53.866Z,48.15
2023-04-21T04:44:57.134Z,46.30
2023-04-21T04:47:59.889Z,44.08
2023-04-21T04:51:01.461Z,45.40
2023-04-21T04:54:03.114Z,44.65
2023-04-21T04:57:04.662Z,44.80
2023-04-21T05:00:11.031Z,44.85
2023-04-21T05:03:12.668Z,44.00
2023-04-21T05:06:14.411Z,46.22
2023-04-21T05:09:16.467Z,44.85
2023-04-21T05:12:18.078Z,46.85
2023-04-21T05:15:19.645Z,51.65
2023-04-21T05:18:21.178Z,50.05
2023-04-21T05:21:27.389Z,49.78
2023-04-21T05:24:29.121Z,48.90
2023-04-21T05:27:30.758Z,50.10
2023-04-21T05:30:32.327Z,46.03
2023-04-21T05:33:33.911Z,51.55
2023-04-21T05:36:35.587Z,54.70
2023-04-21T05:39:37.133Z,51.97
2023-04-21T05:42:38.699Z,50.85
2023-04-21T05:45:41.047Z,51.53
2023-04-21T05:48:42.791Z,51.88
2023-04-21T05:51:44.551Z,53.40
2023-04-21T05:54:46.117Z,52.30
2023-04-21T05:57:47.742Z,47.45
2023-04-21T06:00:50.445Z,45.38
2023-04-21T06:03:52.153Z,48.72
2023-04-21T06:06:53.819Z,47.53
2023-04-21T06:09:56.029Z,48.92
2023-04-21T06:12:57.695Z,48.50
2023-04-21T06:15:59.309Z,51.55
2023-04-21T06:19:01.055Z,46.50
2023-04-21T06:22:02.638Z,48.17
2023-04-21T06:25:05.469Z,48.75
2023-04-21T06:28:07.156Z,45.10
2023-04-21T06:31:09.783Z,46.63
2023-04-21T06:34:11.491Z,47.42
2023-04-21T06:37:13.117Z,44.25
2023-04-21T06:40:16.392Z,44.90
2023-04-21T06:43:18.056Z,44.63
2023-04-21T06:46:19.685Z,43.03
2023-04-21T06:49:21.551Z,42.72
2023-04-21T06:52:23.303Z,43.80
2023-04-21T06:55:25.372Z,43.42
2023-04-21T06:58:27.152Z,44.28
2023-04-21T07:01:28.822Z,41.47
2023-04-21T07:04:32.311Z,42.25
2023-04-21T07:07:34.312Z,44.80
2023-04-21T07:10:35.991Z,42.55
2023-04-21T07:13:37.564Z,46.50
2023-04-21T07:16:39.292Z,43.17
2023-04-21T07:19:40.981Z,41.13
2023-04-21T07:22:42.488Z,41.85
2023-04-21T07:25:44.076Z,42.08
2023-04-21T07:28:45.651Z,42.00
2023-04-21T07:31:48.194Z,44.50
2023-04-21T07:34:50.045Z,43.35
2023-04-21T07:37:51.746Z,45.30
2023-04-21T07:40:53.483Z,44.75
2023-04-21T07:43:55.467Z,42.58
2023-04-21T07:46:57.012Z,45.95
2023-04-21T07:49:58.745Z,44.42
2023-04-21T07:53:01.678Z,45.13
2023-04-21T07:56:03.387Z,45.15
2023-04-21T07:59:04.948Z,43.75
2023-04-21T08:02:07.722Z,44.90
2023-04-21T08:05:09.629Z,44.85
2023-04-21T08:08:11.819Z,44.58
2023-04-21T08:11:13.406Z,43.03
2023-04-21T08:14:15.245Z,45.63
2023-04-21T08:17:16.905Z,46.35
2023-04-21T08:20:18.519Z,45.55
2023-04-21T08:23:20.226Z,45.75
2023-04-21T08:26:23.690Z,43.03
2023-04-21T08:29:25.268Z,44.53
2023-04-21T08:32:27.424Z,41.53
2023-04-21T08:35:29.059Z,43.65
2023-04-21T08:38:30.790Z,44.08
2023-04-21T08:41:32.449Z,45.00
2023-04-21T08:44:34.044Z,44.75
2023-04-21T08:47:38.538Z,43.47
2023-04-21T08:50:42.431Z,42.22
2023-04-21T08:53:44.599Z,43.28
2023-04-21T08:56:48.538Z,41.17
2023-04-21T08:59:50.265Z,39.67
2023-04-21T09:03:01.734Z,39.55
2023-04-21T09:06:09.628Z,39.42
2023-04-21T09:09:11.610Z,38.47
2023-04-21T09:12:13.164Z,39.08
2023-04-21T09:15:14.722Z,41.05
2023-04-21T09:18:17.385Z,39.13
2023-04-21T09:21:20.400Z,35.90
2023-04-21T09:24:22.038Z,36.58
2023-04-21T09:27:23.662Z,36.40
2023-04-21T09:30:25.580Z,35.08
2023-04-21T09:33:34.292Z,34.33
2023-04-21T09:36:36.144Z,34.78
2023-04-21T09:39:52.799Z,35.92
2023-04-21T09:42:58.810Z,35.58
2023-04-21T09:46:03.427Z,34.53
2023-04-21T09:49:06.006Z,36.00
2023-04-21T09:52:18.438Z,35.58
2023-04-21T09:55:26.952Z,34.72
2023-04-21T09:58:34.823Z,32.75
2023-04-21T10:01:38.849Z,33.92
2023-04-21T10:04:42.488Z,33.10
2023-04-21T10:07:45.383Z,32.70
2023-04-21T10:10:47.606Z,31.38
2023-04-21T10:13:49.591Z,34.03
2023-04-21T10:17:18.089Z,33.30
2023-04-21T10:20:19.899Z,33.25
2023-04-21T10:23:37.648Z,34.55
2023-04-21T10:26:39.224Z,31.83
2023-04-21T10:29:55.453Z,32.03
2023-04-21T10:33:06.014Z,31.77
2023-04-21T10:36:12.158Z,34.27
2023-04-21T10:39:52.844Z,31.55
2023-04-21T10:45:56.397Z,31.42
2023-04-21T10:49:06.898Z,32.78
2023-04-21T10:52:09.783Z,32.80
2023-04-21T10:55:12.790Z,33.10
2023-04-21T10:58:16.543Z,31.85
2023-04-21T11:01:18.915Z,32.83
2023-04-21T11:04:23.138Z,31.80
2023-04-21T11:07:26.048Z,32.53
2023-04-21T11:10:27.609Z,32.70
2023-04-21T11:13:33.538Z,32.42
2023-04-21T11:16:36.855Z,31.08
2023-04-21T11:19:38.759Z,32.50
2023-04-21T11:22:40.324Z,31.75
2023-04-21T11:25:47.069Z,31.92
2023-04-21T11:28:49.893Z,31.25
2023-04-21T11:31:53.586Z,30.23
2023-04-21T11:34:55.303Z,31.70
2023-04-21T11:37:56.934Z,31.63
2023-04-21T11:40:58.484Z,29.42
2023-04-21T11:44:01.301Z,31.45
2023-04-21T11:47:13.955Z,29.15
2023-04-21T11:50:31.107Z,29.45
2023-04-21T11:53:32.877Z,28.67
2023-04-21T11:56:42.649Z,29.50
2023-04-21T11:59:46.980Z,28.23
2023-04-21T12:02:56.457Z,26.75
2023-04-21T12:05:58.577Z,27.83
2023-04-21T12:09:02.428Z,25.17
2023-04-21T12:12:05.372Z,27.67
2023-04-21T12:15:08.667Z,25.52
2023-04-21T12:18:13.978Z,25.60
2023-04-21T12:21:16.497Z,24.42
2023-04-21T12:24:18.038Z,30.08
2023-04-21T12:27:21.041Z,24.67
2023-04-21T12:30:22.628Z,25.30
2023-04-21T12:33:24.408Z,25.17
2023-04-21T12:36:27.732Z,25.13
2023-04-21T12:39:30.502Z,22.70
2023-04-21T12:42:33.115Z,24.13
2023-04-21T12:45:36.494Z,22.83
2023-04-21T12:48:38.127Z,22.38
2023-04-21T12:51:39.673Z,21.85
2023-04-21T12:54:41.705Z,23.10
2023-04-21T12:57:43.565Z,21.88
2023-04-21T13:00:45.220Z,21.60
2023-04-21T13:03:46.903Z,22.42
2023-04-21T13:06:48.670Z,21.67
2023-04-21T13:09:50.574Z,22.52
2023-04-21T13:12:52.420Z,21.75
2023-04-21T13:15:54.179Z,21.90
2023-04-21T13:18:55.722Z,21.45
2023-04-21T13:21:57.304Z,22.20
2023-04-21T13:24:58.905Z,21.55
2023-04-21T13:28:00.883Z,21.75
2023-04-21T13:31:02.602Z,21.00
2023-04-21T13:34:04.288Z,20.10
2023-04-21T13:37:08.958Z,20.98
2023-04-21T13:40:11.280Z,20.02
2023-04-21T13:43:13.154Z,20.60
2023-04-21T13:46:17.035Z,18.90
2023-04-21T13:49:18.694Z,14.68
2023-04-21T13:52:20.296Z,15.68
2023-04-21T13:55:21.918Z,14.20
2023-04-21T13:58:23.597Z,14.18
2023-04-21T14:01:25.580Z,13.45
2023-04-21T14:04:27.506Z,13.85
2023-04-21T14:07:29.266Z,13.40
2023-04-21T14:10:31.164Z,12.45
2023-04-21T14:13:39.580Z,12.85
2023-04-21T14:16:43.734Z,14.07
2023-04-21T14:19:45.507Z,13.07
2023-04-21T14:22:47.137Z,12.98
2023-04-21T14:25:48.752Z,13.02
2023-04-21T14:28:51.120Z,13.48
2023-04-21T14:31:57.404Z,18.75
2023-04-21T14:35:00.514Z,13.88
2023-04-21T14:38:02.165Z,13.40
2023-04-21T14:41:04.203Z,12.45
2023-04-21T14:44:05.773Z,12.40
2023-04-21T14:47:10.375Z,12.55
2023-04-21T14:50:12.869Z,12.90
2023-04-21T14:53:14.606Z,12.27
2023-04-21T14:56:16.177Z,12.18
2023-04-21T14:59:17.937Z,17.55
2023-04-21T15:02:20.908Z,14.80
2023-04-21T15:05:26.292Z,11.68
2023-04-21T15:08:28.047Z,11.68
2023-04-21T15:11:29.766Z,11.65
2023-04-21T15:14:31.680Z,12.40
2023-04-21T15:17:33.459Z,11.27
2023-04-21T15:20:44.319Z,11.55
2023-04-21T15:23:47.382Z,12.07
2023-04-21T15:26:48.981Z,12.82
2023-04-21T15:29:50.580Z,12.38
2023-04-21T15:32:52.659Z,12.10
2023-04-21T15:35:54.280Z,11.07
2023-04-21T15:38:56.048Z,12.20
2023-04-21T15:41:58.987Z,10.93
2023-04-21T15:45:02.060Z,11.20
2023-04-21T15:48:03.790Z,11.93
2023-04-21T15:51:05.678Z,10.60
2023-04-21T15:54:07.280Z,11.07
2023-04-21T15:57:08.928Z,9.77
2023-04-21T16:00:11.246Z,9.98
2023-04-21T16:03:13.029Z,9.32
2023-04-21T16:06:15.788Z,10.13
2023-04-21T16:09:18.414Z,9.73
2023-04-21T16:12:20.081Z,8.82
2023-04-21T16:15:24.588Z,9.00
2023-04-21T16:18:27.053Z,9.02
2023-04-21T16:21:28.733Z,8.02
2023-04-21T16:24:30.360Z,8.48
2023-04-21T16:27:32.035Z,8.40
2023-04-21T16:30:35.276Z,8.25
2023-04-21T16:33:36.931Z,8.23
2023-04-21T16:36:38.592Z,8.45
2023-04-21T16:39:40.227Z,8.55
2023-04-21T16:42:41.809Z,9.85
2023-04-21T16:45:43.460Z,11.15
2023-04-21T16:48:45.359Z,10.27
2023-04-21T16:51:47.223Z,9.45
2023-04-21T16:54:48.786Z,14.93
2023-04-21T16:57:50.330Z,9.15
2023-04-21T17:00:52.439Z,11.15
2023-04-21T17:03:54.328Z,9.02
2023-04-21T17:06:55.943Z,8.30
2023-04-21T17:09:57.794Z,8.18
2023-04-21T17:12:59.360Z,8.32
2023-04-21T17:16:01.814Z,9.20
2023-04-21T17:19:03.550Z,8.77
2023-04-21T17:22:05.277Z,9.23
2023-04-21T17:25:08.065Z,8.85
2023-04-21T17:28:09.834Z,9.32
2023-04-21T17:31:15.153Z,9.18
2023-04-21T17:34:17.873Z,9.80
2023-04-21T17:37:19.513Z,8.88
2023-04-21T17:40:22.087Z,9.13
2023-04-21T17:43:24.315Z,9.05
2023-04-21T17:46:26.346Z,9.55
2023-04-21T17:49:27.935Z,9.60
2023-04-21T17:52:30.379Z,9.05
2023-04-21T17:55:32.048Z,9.02
2023-04-21T17:58:34.637Z,8.75
2023-04-21T18:01:36.234Z,8.93
2023-04-21T18:04:38.146Z,9.93
2023-04-21T18:07:41.362Z,9.32
2023-04-21T18:10:42.931Z,10.02
2023-04-21T18:13:44.543Z,9.07
2023-04-21T18:16:46.114Z,10.38
2023-04-21T18:19:47.779Z,10.18
2023-04-21T18:22:50.741Z,10.38
2023-04-21T18:25:53.557Z,9.93
2023-04-21T18:28:57.994Z,10.20
2023-04-21T18:31:59.690Z,9.60
2023-04-21T18:35:02.390Z,11.20
2023-04-21T18:38:04.888Z,10.15
2023-04-21T18:41:06.616Z,10.77
2023-04-21T18:44:08.260Z,11.48
2023-04-21T18:47:09.955Z,10.88
2023-04-21T18:50:12.096Z,10.65
2023-04-21T18:53:14.007Z,11.77
2023-04-21T18:56:15.577Z,11.48
2023-04-21T18:59:17.478Z,12.68
2023-04-21T19:02:19.195Z,11.63
2023-04-21T19:05:20.809Z,12.13
2023-04-21T19:08:38.264Z,12.50
2023-04-21T19:11:43.459Z,13.05
2023-04-21T19:14:47.421Z,13.55
2023-04-21T19:17:49.519Z,13.57
2023-04-21T19:20:51.102Z,12.27
2023-04-21T19:23:52.701Z,12.95
2023-04-21T19:26:54.395Z,14.77
2023-04-21T19:29:57.200Z,14.63
2023-04-21T19:32:58.832Z,15.23
2023-04-21T19:36:01.338Z,16.48
2023-04-21T19:39:03.972Z,16.30
2023-04-21T19:42:05.673Z,15.68
2023-04-21T19:45:08.914Z,14.10
2023-04-21T19:48:10.449Z,13.02
2023-04-21T19:51:12.055Z,11.55
2023-04-21T19:54:13.638Z,5.40
2023-04-21T19:57:15.765Z,3.20
2023-04-21T20:00:17.582Z,2.67
2023-04-21T20:03:19.801Z,2.80
2023-04-21T20:06:21.607Z,2.50
2023-04-21T20:09:23.248Z,2.28
2023-04-21T20:12:24.937Z,3.03
2023-04-21T20:15:27.486Z,2.60
2023-04-21T20:18:29.185Z,3.40
2023-04-21T20:21:32.236Z,3.22
2023-04-21T20:24:34.603Z,3.30
2023-04-21T20:27:36.336Z,3.28
2023-04-21T20:30:38.637Z,3.28
2023-04-21T20:33:40.165Z,3.83
2023-04-21T20:36:41.742Z,4.03
2023-04-21T20:39:46.646Z,3.50
2023-04-21T20:42:48.674Z,3.80
2023-04-21T20:45:50.681Z,4.05
2023-04-21T20:48:52.503Z,3.22
2023-04-21T20:51:58.424Z,5.32
2023-04-21T20:55:00.010Z,4.32
2023-04-21T20:58:02.184Z,4.82
2023-04-21T21:01:03.821Z,5.40
2023-04-21T21:04:05.512Z,6.10
2023-04-21T21:07:07.214Z,5.40
2023-04-21T21:10:11.170Z,8.25
2023-04-21T21:13:12.735Z,8.38
2023-04-21T21:16:14.909Z,7.30
2023-04-21T21:19:16.615Z,5.78
2023-04-21T21:22:18.161Z,6.45
2023-04-21T21:25:19.893Z,6.53
2023-04-21T21:28:21.533Z,6.78
2023-04-21T21:31:23.483Z,6.95
2023-04-21T21:34:25.145Z,6.75
2023-04-21T21:37:27.001Z,6.22
2023-04-21T21:40:28.651Z,7.70
2023-04-21T21:43:30.757Z,5.32
2023-04-21T21:46:32.476Z,6.18
2023-04-21T21:49:34.071Z,6.65
2023-04-21T21:52:35.626Z,7.38
2023-04-21T21:55:37.771Z,7.90
2023-04-21T21:58:39.667Z,9.15
2023-04-21T22:01:42.058Z,9.52
2023-04-21T22:04:43.982Z,9.65
2023-04-21T22:07:45.874Z,9.90
2023-04-21T22:10:47.536Z,9.88
2023-04-21T22:13:49.214Z,11.10
2023-04-21T22:16:52.336Z,9.82
2023-04-21T22:19:53.960Z,10.55
2023-04-21T22:22:55.682Z,9.35
2023-04-21T22:25:57.247Z,9.43
2023-04-21T22:28:58.944Z,9.75
2023-04-21T22:32:00.827Z,10.60
2023-04-21T22:35:03.252Z,9.55
2023-04-21T22:38:04.832Z,9.55
2023-04-21T22:41:06.635Z,10.70
2023-04-21T22:44:08.567Z,10.65
2023-04-21T22:47:13.071Z,10.55
2023-04-21T22:50:15.804Z,11.52
2023-04-21T22:53:17.649Z,11.13
2023-04-21T22:56:19.208Z,9.73
2023-04-21T22:59:20.770Z,9.48
2023-04-21T23:02:22.498Z,10.27
2023-04-21T23:05:24.245Z,11.60
2023-04-21T23:08:26.314Z,13.43
2023-04-21T23:11:27.870Z,11.00
2023-04-21T23:14:29.513Z,13.70
2023-04-21T23:17:31.055Z,12.68
2023-04-21T23:20:32.789Z,14.18
2023-04-21T23:23:34.419Z,10.18
2023-04-21T23:26:36.138Z,13.55
2023-04-21T23:29:37.827Z,13.95
2023-04-21T23:32:39.732Z,13.38
2023-04-21T23:35:41.387Z,12.93
2023-04-21T23:38:42.951Z,11.27
2023-04-21T23:41:44.825Z,12.27
2023-04-21T23:44:46.541Z,12.60
2023-04-21T23:47:48.154Z,11.13
2023-04-21T23:50:49.835Z,11.57
2023-04-21T23:53:51.520Z,11.25
2023-04-21T23:56:56.560Z,11.38
2023-04-21T23:59:58.134Z,12.73
